Flight Track Log - Related Links

Times and Time Zones

All times are in EDT time to prevent confusion due to time zone crossing. See the THY9 flight status page for this flight to view local times or setup timezone preferences in your user account.

Time Position Orientation Groundspeed Altitude Reporting Facility
EDT Latitude Longitude Course Direction KTS MPH feet Rate Location/Type
Sat 06:11:47 AM 41.0710 28.8060 270° West 229 264 2,700  Level FlightAware ADS-B
Sat 06:11:52 AM 41.0770 28.8050 353° North 230 265 2,900 1,333 Climbing FlightAware ADS-B
Sat 06:12:32 AM 41.1160 28.7890 343° North 260 299 3,700 1,600 Climbing FlightAware ADS-B
Sat 06:13:07 AM 41.1550 28.7550 327° Northwest 280 322 4,900 2,040 Climbing FlightAware ADS-B
Sat 06:13:22 AM 41.1700 28.7410 325° Northwest 294 338 5,400 2,533 Climbing FlightAware ADS-B
Sat 06:13:52 AM 41.2060 28.7080 325° Northwest 293 337 6,800 2,600 Climbing FlightAware ADS-B
Sat 06:14:22 AM 41.2450 28.6730 326° Northwest 313 360 8,000 1,964 Climbing FlightAware ADS-B
Sat 06:14:47 AM 41.2740 28.6470 326° Northwest 311 358 8,600 655 Climbing FlightAware ADS-B
Sat 06:15:17 AM 41.3010 28.6220 325° Northwest 311 358 8,600 327 Level FlightAware ADS-B
Sat 06:15:42 AM 41.3410 28.5870 327° Northwest 318 366 8,900 1,100 Climbing FlightAware ADS-B
Sat 06:16:17 AM 41.3870 28.5460 326° Northwest 316 364 9,700 1,680 Climbing FlightAware ADS-B
Sat 06:16:57 AM 41.4380 28.4990 325° Northwest 337 388 11,000 1,553 Climbing FlightAware ADS-B
Sat 06:17:42 AM 41.5010 28.4420 326° Northwest 378 435 11,900 1,500 Climbing FlightAware ADS-B
Sat 06:18:37 AM 41.5770 28.3730 326° Northwest 398 458 13,500 2,067 Climbing FlightAware ADS-B
Sat 06:19:12 AM 41.6400 28.3160 326° Northwest 413 475 15,000 2,480 Climbing FlightAware ADS-B
Sat 06:19:52 AM 41.7000 28.2610 326° Northwest 411 473 16,600 2,200 Climbing FlightAware ADS-B
Sat 06:20:42 AM 41.7770 28.1900 325° Northwest 416 479 18,300 2,188 Climbing FlightAware ADS-B
Sat 06:21:17 AM 41.8400 28.1330 326° Northwest 418 481 19,700 1,500 Climbing FlightAware ADS-B
Sat 06:22:02 AM 41.9050 28.0720 325° Northwest 427 491 20,300 1,733 Climbing FlightAware ADS-B
Sat 06:22:47 AM 41.9900 28.0250 338° Northwest 437 503 22,300 2,400 Climbing FlightAware ADS-B
Sat 06:23:27 AM 42.0690 27.9820 338° Northwest 437 503 23,700 1,694 Climbing FlightAware ADS-B
Sat 06:24:12 AM 42.1560 27.9340 338° Northwest 436 502 24,700 1,425 Climbing FlightAware ADS-B
Sat 06:24:47 AM 42.2220 27.8970 337° Northwest 436 502 25,600 1,275 Climbing FlightAware ADS-B
Sat 06:25:32 AM 42.2990 27.8540 338° Northwest 455 524 26,400 1,200 Climbing FlightAware ADS-B
Sat 06:26:07 AM 42.3750 27.8120 338° Northwest 460 529 27,200 1,341 Climbing FlightAware ADS-B
Sat 06:26:57 AM 42.4770 27.7540 337° Northwest 466 536 28,300 1,263 Climbing FlightAware ADS-B
Sat 06:27:42 AM 42.5710 27.7020 338° Northwest 471 542 29,200 1,050 Climbing FlightAware ADS-B
Sat 06:28:17 AM 42.6410 27.6620 337° Northwest 476 548 29,700 640 Climbing FlightAware ADS-B
Sat 06:28:57 AM 42.7100 27.6230 337° Northwest 471 542 30,000 225 Climbing FlightAware ADS-B
Sat 06:29:37 AM 42.7910 27.5770 337° Northwest 470 541 30,000  Level FlightAware ADS-B
Sat 06:30:27 AM 42.9030 27.5130 337° Northwest 470 541 30,000  Level FlightAware ADS-B
Sat 06:31:37 AM 43.0450 27.4320 337° Northwest 475 547 30,000  Level FlightAware ADS-B
Sat 06:32:22 AM 43.1350 27.3810 338° Northwest 475 547 30,000  Level FlightAware ADS-B
Sat 06:33:02 AM 43.2030 27.3410 337° Northwest 476 548 30,000  Level FlightAware ADS-B
Sat 06:33:42 AM 43.2860 27.2940 338° Northwest 477 549 30,000  Level FlightAware ADS-B
Sat 06:34:27 AM 43.3820 27.2380 337° Northwest 479 551 30,000  Level FlightAware ADS-B
Sat 06:35:07 AM 43.4610 27.1920 337° Northwest 481 554 30,000  Level FlightAware ADS-B
Sat 06:35:52 AM 43.5490 27.1410 337° Northwest 481 554 30,000  Level FlightAware ADS-B
Sat 06:36:32 AM 43.6370 27.0900 337° Northwest 483 556 30,000  Level FlightAware ADS-B
Sat 06:37:07 AM 43.7120 27.0460 337° Northwest 484 557 30,000  Level FlightAware ADS-B
Sat 06:37:47 AM 43.7900 27.0010 337° Northwest 485 558 30,000  Level FlightAware ADS-B
Sat 06:38:47 AM 43.9200 26.9680 350° North 487 560 30,000  Level FlightAware ADS-B
Sat 06:39:27 AM 44.0140 26.9430 349° North 488 562 30,000  Level FlightAware ADS-B
Sat 06:40:07 AM 44.1050 26.9170 348° North 489 563 30,000  Level FlightAware ADS-B
Sat 06:40:47 AM 44.1830 26.8930 348° North 489 563 30,000  Level FlightAware ADS-B
Sat 06:41:27 AM 44.2590 26.8710 348° North 489 563 30,000  Level FlightAware ADS-B
Sat 06:42:17 AM 44.3530 26.8430 348° North 489 563 30,000  Level FlightAware ADS-B
Sat 06:42:57 AM 44.4820 26.8280 355° North 492 566 30,000  Level FlightAware ADS-B
Sat 06:43:37 AM 44.5760 26.8060 351° North 492 566 30,000  Level FlightAware ADS-B
Sat 06:44:22 AM 44.6670 26.7840 350° North 492 566 30,000  Level FlightAware ADS-B
Sat 06:45:02 AM 44.7630 26.7610 350° North 492 566 30,000  Level FlightAware ADS-B
Sat 06:45:47 AM 44.8720 26.7350 350° North 492 566 30,000  Level FlightAware ADS-B
Sat 06:46:22 AM 44.9490 26.7170 351° North 492 566 30,000  Level FlightAware ADS-B
Sat 06:47:02 AM 45.0340 26.6960 350° North 492 566 30,000  Level FlightAware ADS-B
Sat 06:47:47 AM 45.1330 26.6730 351° North 493 567 30,000  Level FlightAware ADS-B
Sat 06:48:32 AM 45.2250 26.6500 350° North 493 567 30,000  Level FlightAware ADS-B
Sat 06:49:07 AM 45.3150 26.6290 351° North 492 566 30,000  Level FlightAware ADS-B
Sat 06:49:57 AM 45.4210 26.6030 350° North 492 566 30,000  Level FlightAware ADS-B
Sat 06:50:37 AM 45.5080 26.5820 350° North 492 566 30,000  Level FlightAware ADS-B
Sat 06:51:22 AM 45.6190 26.5550 350° North 491 565 30,000  Level FlightAware ADS-B
Sat 06:52:12 AM 45.7320 26.5270 350° North 492 566 30,000  Level FlightAware ADS-B
Sat 06:52:57 AM 45.8190 26.5060 350° North 493 567 30,000  Level FlightAware ADS-B
Sat 06:53:42 AM 45.9270 26.4790 350° North 493 567 30,000  Level FlightAware ADS-B
Sat 06:54:22 AM 46.0190 26.4560 350° North 488 562 30,000  Level FlightAware ADS-B
Sat 06:55:07 AM 46.1220 26.4300 350° North 487 560 30,000  Level FlightAware ADS-B
Sat 06:55:47 AM 46.2110 26.4080 350° North 488 562 30,000  Level FlightAware ADS-B
Sat 06:56:32 AM 46.3020 26.3850 350° North 490 564 30,000  Level FlightAware ADS-B
Sat 06:57:12 AM 46.3960 26.3620 350° North 492 566 30,000  Level FlightAware ADS-B
Sat 06:57:57 AM 46.5010 26.3350 350° North 493 567 30,000  Level FlightAware ADS-B
Sat 06:58:37 AM 46.5930 26.3120 350° North 495 570 30,000  Level FlightAware ADS-B
Sat 06:59:32 AM 46.7090 26.2820 350° North 497 572 30,000  Level FlightAware ADS-B
Sat 07:00:12 AM 46.8130 26.2560 350° North 498 573 30,000  Level FlightAware ADS-B
Sat 07:00:57 AM 46.9170 26.2290 350° North 499 574 30,000  Level FlightAware ADS-B
Sat 07:01:42 AM 47.0190 26.2030 350° North 499 574 30,000  Level FlightAware ADS-B
Sat 07:02:22 AM 47.1090 26.1800 350° North 498 573 30,000  Level FlightAware ADS-B
Sat 07:03:02 AM 47.1970 26.1570 350° North 498 573 30,000  Level FlightAware ADS-B
Sat 07:03:47 AM 47.3040 26.1290 350° North 499 574 30,000  Level FlightAware ADS-B
Sat 07:04:27 AM 47.3950 26.1060 350° North 502 578 30,000  Level FlightAware ADS-B
Sat 07:05:07 AM 47.4880 26.0810 350° North 502 578 30,000  Level FlightAware ADS-B
Sat 07:05:52 AM 47.5890 26.0550 350° North 504 580 30,000  Level FlightAware ADS-B
Sat 07:06:32 AM 47.6810 26.0300 350° North 504 580 30,000  Level FlightAware ADS-B
Sat 07:07:17 AM 47.7850 26.0030 350° North 504 580 30,000  Level FlightAware ADS-B
Sat 07:07:57 AM 47.8780 25.9780 350° North 505 581 30,000  Level FlightAware ADS-B
Sat 07:08:37 AM 47.9680 25.9540 350° North 506 582 30,000  Level FlightAware ADS-B
Sat 07:09:22 AM 48.0710 25.9230 349° North 505 581 30,000  Level FlightAware ADS-B
Sat 07:09:52 AM 48.1370 25.9040 349° North 505 581 30,000  Level FlightAware ADS-B
Sat 07:10:47 AM 48.2660 25.8650 349° North 503 579 30,000  Level FlightAware ADS-B
Sat 07:11:27 AM 48.3580 25.8370 349° North 503 579 30,000  Level FlightAware ADS-B
Sat 07:12:07 AM 48.4500 25.8100 349° North 502 578 30,000  Level FlightAware ADS-B
Sat 07:12:52 AM 48.5500 25.7790 348° North 501 577 30,000  Level FlightAware ADS-B
Sat 07:13:32 AM 48.6420 25.7520 349° North 500 575 30,000  Level FlightAware ADS-B
Sat 07:14:17 AM 48.7460 25.7200 349° North 498 573 30,000  Level FlightAware ADS-B
Sat 07:14:57 AM 48.8340 25.6930 349° North 497 572 30,000  Level FlightAware ADS-B
Sat 07:15:42 AM 48.9330 25.6630 349° North 500 575 30,000  Level FlightAware ADS-B
Sat 07:16:22 AM 49.0240 25.6350 349° North 501 577 30,000  Level FlightAware ADS-B
Sat 07:17:02 AM 49.1150 25.6070 349° North 499 574 30,000  Level FlightAware ADS-B
Sat 07:17:47 AM 49.2200 25.5740 348° North 501 577 30,000  Level FlightAware ADS-B
Sat 07:18:27 AM 49.3110 25.5460 349° North 502 578 30,000  Level FlightAware ADS-B
Sat 07:19:07 AM 49.4000 25.5180 348° North 502 578 30,000  Level FlightAware ADS-B
Sat 07:19:52 AM 49.5000 25.4870 349° North 502 578 30,000  Level FlightAware ADS-B
Sat 07:20:32 AM 49.5920 25.4580 348° North 502 578 30,000  Level FlightAware ADS-B
Sat 07:21:17 AM 49.6970 25.4250 349° North 501 577 30,000  Level FlightAware ADS-B
Sat 07:21:57 AM 49.7840 25.3970 348° North 497 572 30,000  Level FlightAware ADS-B
Sat 07:22:37 AM 49.8750 25.3680 348° North 498 573 30,000  Level FlightAware ADS-B
Sat 07:23:22 AM 49.9770 25.3350 348° North 499 574 30,000  Level FlightAware ADS-B
Sat 07:24:02 AM 50.0690 25.3050 348° North 498 573 30,000  Level FlightAware ADS-B
Sat 07:24:42 AM 50.1580 25.2760 348° North 499 574 30,000  Level FlightAware ADS-B
Sat 07:25:27 AM 50.2580 25.2440 348° North 500 575 30,000  Level FlightAware ADS-B
Sat 07:26:07 AM 50.3460 25.2150 348° North 500 575 30,000  Level FlightAware ADS-B
Sat 07:26:52 AM 50.4500 25.1810 348° North 503 579 30,000  Level FlightAware ADS-B
Sat 07:27:32 AM 50.5390 25.1520 348° North 504 580 30,000  Level FlightAware ADS-B
Sat 07:28:17 AM 50.6460 25.1170 348° North 503 579 30,000  Level FlightAware ADS-B
Sat 07:28:57 AM 50.7330 25.0880 348° North 502 578 30,000  Level FlightAware ADS-B
Sat 07:29:47 AM 50.8390 25.0530 348° North 502 578 30,000  Level FlightAware ADS-B
Sat 07:30:37 AM 50.9530 25.0150 348° North 504 580 30,000  Level FlightAware ADS-B
Sat 07:31:12 AM 51.0230 24.9910 348° North 505 581 30,000  Level FlightAware ADS-B
Sat 07:32:12 AM 51.1680 24.9420 348° North 505 581 30,000  Level FlightAware ADS-B
Sat 07:32:52 AM 51.2540 24.9120 348° North 504 580 30,000  Level FlightAware ADS-B
Sat 07:33:52 AM 51.4010 24.8620 348° North 504 580 30,000  Level FlightAware ADS-B
Sat 07:34:27 AM 51.4870 24.8320 348° North 503 579 30,000  Level FlightAware ADS-B
Sat 07:35:12 AM 51.5870 24.7980 348° North 504 580 30,000  Level FlightAware ADS-B
Sat 07:35:57 AM 51.6820 24.7650 348° North 505 581 30,000  Level FlightAware ADS-B
Sat 07:36:37 AM 51.7820 24.7300 348° North 505 581 30,000  Level FlightAware ADS-B
Sat 07:37:12 AM 51.8630 24.7020 348° North 505 581 30,000 71 Level FlightAware ADS-B
Sat 07:38:02 AM 51.9750 24.6620 348° North 507 583 30,100 695 Climbing FlightAware ADS-B
Sat 07:38:47 AM 52.0740 24.6270 348° North 505 581 31,100 1,341 Climbing FlightAware ADS-B
Sat 07:39:27 AM 52.1680 24.5940 348° North 503 579 32,000 771 Climbing FlightAware ADS-B
Sat 07:39:57 AM 52.2370 24.5690 347° North 501 577 32,000  Level FlightAware ADS-B
Sat 07:40:52 AM 52.3660 24.5230 348° North 504 580 32,000  Level FlightAware ADS-B
Sat 07:41:32 AM 52.4550 24.4920 348° North 503 579 32,000  Level FlightAware ADS-B
Sat 07:42:07 AM 52.5330 24.4630 347° North 501 577 32,000  Level FlightAware ADS-B
Sat 07:42:42 AM 52.6170 24.4330 348° North 500 575 32,000  Level FlightAware ADS-B
Sat 07:43:22 AM 52.7020 24.4020 348° North 499 574 32,000  Level FlightAware ADS-B
Sat 07:44:07 AM 52.8050 24.3650 348° North 497 572 32,000  Level FlightAware ADS-B
Sat 07:44:47 AM 52.8940 24.3330 348° North 498 573 32,000  Level FlightAware ADS-B
Sat 07:45:27 AM 52.9840 24.3000 348° North 498 573 32,000  Level FlightAware ADS-B
Sat 07:46:12 AM 53.0890 24.2610 347° North 500 575 32,000  Level FlightAware ADS-B
Sat 07:46:52 AM 53.1790 24.2260 347° North 498 573 32,000  Level FlightAware ADS-B
Sat 07:47:37 AM 53.2760 24.1870 346° North 503 579 32,000  Level FlightAware ADS-B
Sat 07:48:27 AM 53.3860 24.1440 347° North 501 577 32,000  Level FlightAware ADS-B
Sat 07:49:12 AM 53.4850 24.1040 346° North 502 578 32,000  Level FlightAware ADS-B
Sat 07:49:57 AM 53.5910 24.0620 347° North 503 579 32,000  Level FlightAware ADS-B
Sat 07:50:37 AM 53.6810 24.0240 346° North 501 577 32,000  Level FlightAware ADS-B
Sat 07:51:17 AM 53.7670 23.9830 344° North 501 577 32,000  Level FlightAware ADS-B
Sat 07:51:57 AM 53.8600 23.9390 344° North 502 578 32,000  Level FlightAware ADS-B
Sat 07:52:42 AM 53.9610 23.8880 343° North 497 572 32,000  Level FlightAware ADS-B
Sat 07:53:27 AM 54.0570 23.8270 340° North 495 570 32,000  Level FlightAware ADS-B
Sat 07:54:07 AM 54.1420 23.7710 339° North 496 571 32,000  Level FlightAware ADS-B
Sat 07:54:52 AM 54.2410 23.7060 339° North 498 573 32,000  Level FlightAware ADS-B
Sat 07:55:27 AM 54.3060 23.6620 338° Northwest 497 572 32,000  Level FlightAware ADS-B
Sat 07:56:12 AM 54.4070 23.5940 339° North 498 573 32,000  Level FlightAware ADS-B
Sat 07:56:57 AM 54.5050 23.5280 339° North 498 573 32,000  Level FlightAware ADS-B
Sat 07:57:37 AM 54.5900 23.4710 339° North 497 572 32,000  Level FlightAware ADS-B
Sat 07:58:22 AM 54.6890 23.4030 338° Northwest 495 570 32,000  Level FlightAware ADS-B
Sat 07:59:02 AM 54.7740 23.3450 339° North 492 566 32,000  Level FlightAware ADS-B
Sat 07:59:42 AM 54.8590 23.2870 339° North 492 566 32,000  Level FlightAware ADS-B
Sat 08:00:27 AM 54.9520 23.2220 338° Northwest 493 567 32,000  Level FlightAware ADS-B
Sat 08:01:07 AM 55.0350 23.1640 338° Northwest 489 563 32,000  Level FlightAware ADS-B
Sat 08:01:52 AM 55.1310 23.0980 339° North 491 565 32,000  Level FlightAware ADS-B
Sat 08:02:32 AM 55.2170 23.0370 338° Northwest 491 565 32,000  Level FlightAware ADS-B
Sat 08:03:17 AM 55.3090 22.9730 338° Northwest 492 566 32,000  Level FlightAware ADS-B
Sat 08:03:57 AM 55.3880 22.9160 338° Northwest 493 567 32,000  Level FlightAware ADS-B
Sat 08:04:52 AM 55.5040 22.8350 338° Northwest 496 571 32,000  Level FlightAware ADS-B
Sat 08:05:32 AM 55.5970 22.7670 338° Northwest 494 568 32,000  Level FlightAware ADS-B
Sat 08:06:17 AM 55.6900 22.7010 338° Northwest 494 568 32,000  Level FlightAware ADS-B
Sat 08:06:57 AM 55.7750 22.6400 338° Northwest 493 567 32,000  Level FlightAware ADS-B
Sat 08:07:42 AM 55.8670 22.5720 337° Northwest 493 567 32,000  Level FlightAware ADS-B
Sat 08:08:22 AM 55.9530 22.5100 338° Northwest 491 565 32,000  Level FlightAware ADS-B
Sat 08:09:07 AM 56.0440 22.4430 338° Northwest 488 562 32,000  Level FlightAware ADS-B
Sat 08:09:47 AM 56.1270 22.3820 338° Northwest 487 560 32,000  Level FlightAware ADS-B
Sat 08:10:27 AM 56.2130 22.3180 338° Northwest 487 560 32,000  Level FlightAware ADS-B
Sat 08:11:07 AM 56.2890 22.2620 338° Northwest 488 562 32,000  Level FlightAware ADS-B
Sat 08:11:52 AM 56.3940 22.1830 337° Northwest 490 564 32,000  Level FlightAware ADS-B
Sat 08:12:37 AM 56.4870 22.1110 337° Northwest 487 560 32,000  Level FlightAware ADS-B
Sat 08:13:17 AM 56.5640 22.0380 332° Northwest 482 555 32,000  Level FlightAware ADS-B
Sat 08:13:57 AM 56.6410 21.9590 331° Northwest 481 554 32,000  Level FlightAware ADS-B
Sat 08:14:42 AM 56.7280 21.8670 330° Northwest 480 552 32,000  Level FlightAware ADS-B
Sat 08:15:22 AM 56.8050 21.7840 329° Northwest 480 552 32,000  Level FlightAware ADS-B
Sat 08:16:07 AM 56.8880 21.6940 329° Northwest 477 549 32,000  Level FlightAware ADS-B
Sat 08:16:47 AM 56.9620 21.6140 329° Northwest 478 550 32,000  Level FlightAware ADS-B
Sat 08:17:27 AM 57.0480 21.5330 333° Northwest 488 562 32,000  Level FlightAware ADS-B
Sat 08:18:12 AM 57.1270 21.4770 339° North 497 572 32,000  Level FlightAware ADS-B
Sat 08:18:52 AM 57.2260 21.4100 340° North 493 567 32,000  Level FlightAware ADS-B
Sat 08:19:37 AM 57.3190 21.3470 340° North 491 565 32,000  Level FlightAware ADS-B
Sat 08:20:17 AM 57.4070 21.2880 340° North 491 565 32,000  Level FlightAware ADS-B
Sat 08:20:57 AM 57.4850 21.2360 340° North 491 565 32,000  Level FlightAware ADS-B
Sat 08:21:42 AM 57.5880 21.1660 340° North 489 563 32,000  Level FlightAware ADS-B
Sat 08:22:22 AM 57.6740 21.1070 340° North 490 564 32,000  Level FlightAware ADS-B
Sat 08:23:07 AM 57.7670 21.0440 340° North 490 564 32,000  Level FlightAware ADS-B
Sat 08:23:47 AM 57.8530 20.9840 340° North 489 563 32,000  Level FlightAware ADS-B
Sat 08:24:27 AM 57.9370 20.9250 340° North 489 563 32,000  Level FlightAware ADS-B
Sat 08:25:12 AM 58.0350 20.8540 339° North 489 563 32,000  Level FlightAware ADS-B
Sat 08:25:52 AM 58.1180 20.7940 339° North 488 562 32,000  Level FlightAware ADS-B
Sat 08:26:32 AM 58.2030 20.7330 339° North 487 560 32,000  Level FlightAware ADS-B
Sat 08:27:17 AM 58.2960 20.6650 339° North 486 559 32,000  Level FlightAware ADS-B
Sat 08:27:57 AM 58.3800 20.6040 339° North 487 560 32,000  Level FlightAware ADS-B
Sat 08:28:42 AM 58.4760 20.5330 339° North 484 557 32,000  Level FlightAware ADS-B
Sat 08:29:22 AM 58.5570 20.4630 336° Northwest 477 549 32,000  Level FlightAware ADS-B
Sat 08:30:02 AM 58.6340 20.3840 332° Northwest 476 548 32,000  Level FlightAware ADS-B
Sat 08:30:47 AM 58.7200 20.2940 331° Northwest 476 548 32,000  Level FlightAware ADS-B
Sat 08:31:27 AM 58.7970 20.2120 331° Northwest 474 545 32,000  Level FlightAware ADS-B
Sat 08:32:07 AM 58.8730 20.1290 331° Northwest 474 545 32,000  Level FlightAware ADS-B
Sat 08:32:52 AM 58.9580 20.0370 331° Northwest 475 547 32,000  Level FlightAware ADS-B
Sat 08:33:32 AM 59.0340 19.9540 331° Northwest 474 545 32,000  Level FlightAware ADS-B
Sat 08:34:17 AM 59.1190 19.8620 331° Northwest 471 542 32,000  Level FlightAware ADS-B
Sat 08:34:57 AM 59.1970 19.7760 331° Northwest 472 543 32,000  Level FlightAware ADS-B
Sat 08:35:37 AM 59.2720 19.6930 331° Northwest 472 543 32,000  Level FlightAware ADS-B
Sat 08:36:22 AM 59.3560 19.5990 330° Northwest 473 544 32,000  Level FlightAware ADS-B
Sat 08:37:02 AM 59.4320 19.5140 330° Northwest 473 544 32,000  Level FlightAware ADS-B
Sat 08:37:42 AM 59.5090 19.4270 330° Northwest 476 548 32,000  Level FlightAware ADS-B
Sat 08:38:27 AM 59.5970 19.3280 330° Northwest 478 550 32,000  Level FlightAware ADS-B
Sat 08:39:07 AM 59.6740 19.2410 330° Northwest 478 550 32,000  Level FlightAware ADS-B
Sat 08:39:52 AM 59.7560 19.1470 330° Northwest 478 550 32,000  Level FlightAware ADS-B
Sat 08:40:32 AM 59.8320 19.0590 330° Northwest 476 548 32,000  Level FlightAware ADS-B
Sat 08:41:17 AM 59.9190 18.9590 330° Northwest 471 542 32,000  Level FlightAware ADS-B
Sat 08:41:57 AM 59.9940 18.8710 330° Northwest 473 544 32,000  Level FlightAware ADS-B
Sat 08:42:37 AM 60.0710 18.7820 330° Northwest 472 543 32,000  Level FlightAware ADS-B
Sat 08:43:22 AM 60.1540 18.6850 330° Northwest 468 539 32,000  Level FlightAware ADS-B
Sat 08:44:02 AM 60.2280 18.5970 329° Northwest 470 541 32,000  Level FlightAware ADS-B
Sat 08:44:47 AM 60.3130 18.4960 330° Northwest 471 542 32,000  Level FlightAware ADS-B
Sat 08:45:32 AM 60.3950 18.3970 329° Northwest 470 541 32,000  Level FlightAware ADS-B
Sat 08:46:07 AM 60.4630 18.3160 330° Northwest 470 541 32,000  Level FlightAware ADS-B
Sat 08:46:52 AM 60.5460 18.2150 329° Northwest 473 544 32,000  Level FlightAware ADS-B
Sat 08:47:37 AM 60.6310 18.1120 329° Northwest 475 547 32,000  Level FlightAware ADS-B
Sat 08:48:17 AM 60.7060 18.0200 329° Northwest 475 547 32,000  Level FlightAware ADS-B
Sat 08:49:02 AM 60.7890 17.9180 329° Northwest 472 543 32,000  Level FlightAware ADS-B
Sat 08:49:42 AM 60.8630 17.8260 329° Northwest 471 542 32,000  Level FlightAware ADS-B
Sat 08:50:22 AM 60.9390 17.7310 329° Northwest 473 544 32,000  Level FlightAware ADS-B
Sat 08:51:07 AM 61.0190 17.6310 329° Northwest 473 544 32,000  Level FlightAware ADS-B
Sat 08:51:47 AM 61.0940 17.5370 329° Northwest 472 543 32,000  Level FlightAware ADS-B
Sat 08:52:27 AM 61.1710 17.4390 328° Northwest 470 541 32,000  Level FlightAware ADS-B
Sat 08:53:12 AM 61.2520 17.3370 329° Northwest 470 541 32,000  Level FlightAware ADS-B
Sat 08:53:52 AM 61.3250 17.2430 328° Northwest 471 542 32,000  Level FlightAware ADS-B
Sat 08:54:27 AM 61.3890 17.1600 328° Northwest 472 543 32,000  Level FlightAware ADS-B
Sat 08:55:17 AM 61.4850 17.0360 328° Northwest 475 547 32,000  Level FlightAware ADS-B
Sat 08:55:57 AM 61.5600 16.9380 328° Northwest 474 545 32,000  Level FlightAware ADS-B
Sat 08:56:42 AM 61.6450 16.8270 328° Northwest 473 544 32,000  Level FlightAware ADS-B
Sat 08:57:22 AM 61.7170 16.7300 327° Northwest 472 543 32,000  Level FlightAware ADS-B
Sat 08:58:02 AM 61.7920 16.6310 328° Northwest 473 544 32,000  Level FlightAware ADS-B
Sat 08:58:47 AM 61.8730 16.5230 328° Northwest 473 544 32,000  Level FlightAware ADS-B
Sat 08:59:27 AM 61.9470 16.4240 328° Northwest 473 544 32,000  Level FlightAware ADS-B
Sat 09:00:12 AM 62.0300 16.3110 327° Northwest 471 542 32,000  Level FlightAware ADS-B
Sat 09:00:52 AM 62.1000 16.2150 327° Northwest 472 543 32,000  Level FlightAware ADS-B
Sat 09:01:37 AM 62.1860 16.0980 328° Northwest 469 540 32,000  Level FlightAware ADS-B
Sat 09:02:12 AM 62.2460 16.0160 328° Northwest 470 541 32,000  Level FlightAware ADS-B
Sat 09:03:02 AM 62.3430 15.8810 327° Northwest 472 543 32,000  Level FlightAware ADS-B
Sat 09:03:42 AM 62.4150 15.7800 327° Northwest 472 543 32,000  Level FlightAware ADS-B
Sat 09:04:22 AM 62.4880 15.6780 327° Northwest 472 543 32,000  Level FlightAware ADS-B
Sat 09:05:07 AM 62.5690 15.5630 327° Northwest 472 543 32,000  Level FlightAware ADS-B
Sat 09:05:47 AM 62.6430 15.4580 327° Northwest 475 547 32,000  Level FlightAware ADS-B
Sat 09:06:32 AM 62.7240 15.3410 327° Northwest 477 549 32,000  Level FlightAware ADS-B
Sat 09:07:12 AM 62.7970 15.2370 327° Northwest 477 549 32,000  Level FlightAware ADS-B
Sat 09:07:52 AM 62.8710 15.1290 326° Northwest 473 544 32,000  Level FlightAware ADS-B
Sat 09:08:37 AM 62.9530 15.0090 326° Northwest 475 547 32,000  Level FlightAware ADS-B
Sat 09:09:17 AM 63.0280 14.9010 327° Northwest 473 544 32,000  Level FlightAware ADS-B
Sat 09:10:02 AM 63.1060 14.7840 326° Northwest 475 547 32,000  Level FlightAware ADS-B
Sat 09:10:32 AM 63.1620 14.7010 326° Northwest 473 544 32,000  Level FlightAware ADS-B
Sat 09:11:17 AM 63.2450 14.5780 326° Northwest 471 542 32,000  Level FlightAware ADS-B
Sat 09:11:57 AM 63.3140 14.4730 326° Northwest 472 543 32,000  Level FlightAware ADS-B
Sat 09:12:42 AM 63.3950 14.3510 326° Northwest 471 542 32,000  Level FlightAware ADS-B
Sat 09:13:22 AM 63.4670 14.2410 326° Northwest 471 542 32,000  Level FlightAware ADS-B
Sat 09:14:07 AM 63.5500 14.1130 326° Northwest 471 542 32,000  Level FlightAware ADS-B
Sat 09:14:47 AM 63.6200 14.0050 326° Northwest 470 541 32,000  Level FlightAware ADS-B
Sat 09:15:27 AM 63.6910 13.8950 326° Northwest 470 541 32,000  Level FlightAware ADS-B
Sat 09:16:12 AM 63.7710 13.7710 326° Northwest 469 540 32,000  Level FlightAware ADS-B
Sat 09:16:52 AM 63.8440 13.6560 325° Northwest 469 540 32,000  Level FlightAware ADS-B
Sat 09:17:37 AM 63.9230 13.5300 325° Northwest 468 539 32,000  Level FlightAware ADS-B
Sat 09:18:17 AM 63.9940 13.4170 325° Northwest 458 527 32,000  Level FlightAware ADS-B
Sat 09:18:57 AM 64.0640 13.3050 325° Northwest 458 527 32,000  Level FlightAware ADS-B
Sat 09:19:42 AM 64.1400 13.1810 325° Northwest 458 527 32,000  Level FlightAware ADS-B
Sat 09:20:22 AM 64.2120 13.0640 325° Northwest 458 527 32,000  Level FlightAware ADS-B
Sat 09:21:12 AM 64.2970 12.9250 325° Northwest 458 527 32,000  Level FlightAware ADS-B
Sat 09:22:02 AM 64.3860 12.7790 325° Northwest 464 534 32,000  Level FlightAware ADS-B
Sat 09:22:42 AM 64.4540 12.6640 324° Northwest 456 525 32,000  Level FlightAware ADS-B
Sat 09:23:32 AM 64.5350 12.5260 324° Northwest 456 525 32,000  Level FlightAware ADS-B
Sat 09:24:12 AM 64.6080 12.4060 325° Northwest 460 529 32,000  Level FlightAware ADS-B
Sat 09:24:57 AM 64.6780 12.2870 324° Northwest 458 527 32,000  Level FlightAware ADS-B
Sat 09:25:42 AM 64.7470 12.1690 324° Northwest 458 527 32,000  Level FlightAware ADS-B
Sat 09:26:27 AM 64.8160 12.0470 323° Northwest 458 527 32,000  Level FlightAware ADS-B
Sat 09:27:07 AM 64.9070 11.8930 324° Northwest 32,000  Level FlightAware ADS-B
Sat 09:28:47 AM 65.0630 11.6180 323° Northwest 452 520 32,000  Level FlightAware ADS-B
Sat 09:29:27 AM 65.1350 11.4920 324° Northwest 452 520 32,000  Level FlightAware ADS-B
Sat 09:30:12 AM 65.2060 11.3640 323° Northwest 451 519 32,000  Level FlightAware ADS-B
Sat 09:30:57 AM 65.2880 11.2170 323° Northwest 451 519 32,000  Level FlightAware ADS-B
Sat 09:31:42 AM 65.3640 11.0790 323° Northwest 449 517 32,000  Level FlightAware ADS-B
Sat 09:32:27 AM 65.4290 10.9560 322° Northwest 449 517 32,000  Level FlightAware ADS-B
Sat 09:33:07 AM 65.4850 10.8520 322° Northwest 449 517 32,000  Level FlightAware ADS-B
Sat 09:33:47 AM 65.5410 10.7470 322° Northwest 449 517 32,000  Level FlightAware ADS-B
Sat 09:34:37 AM 65.6100 10.6150 322° Northwest 449 517 32,000  Level FlightAware ADS-B
Sat 09:35:17 AM 65.6660 10.5100 322° Northwest 449 517 32,000  Level FlightAware ADS-B
Sat 09:35:57 AM 65.7790 10.3090 324° Northwest 32,000  Level FlightAware ADS-B
Sat 09:36:57 AM 65.8680 10.1380 322° Northwest 444 511 32,000  Level FlightAware ADS-B
Sat 09:37:37 AM 65.9230 10.0330 322° Northwest 444 511 32,000  Level FlightAware ADS-B
Sat 09:38:17 AM 65.9780 9.9270 322° Northwest 444 511 32,000  Level FlightAware ADS-B
Sat 09:38:57 AM 66.0330 9.8210 322° Northwest 444 511 32,000  Level FlightAware ADS-B
Sat 09:39:47 AM 66.1400 9.6100 321° Northwest 439 505 32,000  Level FlightAware ADS-B
Sat 09:40:27 AM 66.1930 9.5020 321° Northwest 439 505 32,000  Level FlightAware ADS-B
Sat 09:41:07 AM 66.2470 9.3940 321° Northwest 439 505 32,000  Level FlightAware ADS-B
Sat 09:41:47 AM 66.3010 9.2860 321° Northwest 439 505 32,000  Level FlightAware ADS-B
Sat 09:42:27 AM 66.3540 9.1780 321° Northwest 439 505 32,000  Level FlightAware ADS-B
Sat 09:43:17 AM 66.4210 9.0420 321° Northwest 439 505 32,000  Level FlightAware ADS-B
Sat 09:44:12 AM 66.5540 8.7750 321° Northwest 434 499 32,000  Level FlightAware ADS-B
Sat 09:44:52 AM 66.6060 8.6640 320° Northwest 434 499 32,000  Level FlightAware ADS-B
Sat 09:45:32 AM 66.6590 8.5540 321° Northwest 434 499 32,000  Level FlightAware ADS-B
Sat 09:46:12 AM 66.7110 8.4430 320° Northwest 434 499 32,000  Level FlightAware ADS-B
Sat 09:46:52 AM 66.7630 8.3320 320° Northwest 434 499 32,000  Level FlightAware ADS-B
Sat 09:47:42 AM 66.8280 8.1920 320° Northwest 434 499 32,000  Level FlightAware ADS-B
Sat 09:48:22 AM 66.8810 8.0810 321° Northwest 434 499 32,000  Level FlightAware ADS-B
Sat 09:49:02 AM 66.9330 7.9690 320° Northwest 434 499 32,000  Level FlightAware ADS-B
Sat 09:49:42 AM 66.9850 7.8570 320° Northwest 434 499 32,000  Level FlightAware ADS-B
Sat 09:50:22 AM 67.0380 7.7440 320° Northwest 434 499 32,000  Level FlightAware ADS-B
Sat 09:51:12 AM 67.1030 7.6030 320° Northwest 434 499 32,000  Level FlightAware ADS-B
Sat 09:51:52 AM 67.1550 7.4910 320° Northwest 434 499 32,000  Level FlightAware ADS-B
Sat 09:52:32 AM 67.2080 7.3770 320° Northwest 434 499 32,000  Level FlightAware ADS-B
Sat 09:53:12 AM 67.2600 7.2640 320° Northwest 434 499 32,000 12 Level FlightAware ADS-B
Sat 09:55:00 AM 67.4203 6.8376 314° West  Level Estimated
Sat 09:56:00 AM 67.5088 6.5981 314° West  Level Estimated
Sat 09:57:00 AM 67.5970 6.3570 314° West  Level Estimated
Sat 09:58:00 AM 67.6849 6.1140 314° West  Level Estimated
Sat 09:59:00 AM 67.7723 5.8692 313° West  Level Estimated
Sat 10:00:00 AM 67.8594 5.6225 313° West  Level Estimated
Sat 10:01:00 AM 67.9462 5.3740 313° West  Level Estimated
Sat 10:02:00 AM 68.0325 5.1237 313° West  Level Estimated
Sat 10:03:00 AM 68.1185 4.8714 313° West  Level Estimated
Sat 10:04:00 AM 68.2041 4.6173 312° West  Level Estimated
Sat 10:05:00 AM 68.2893 4.3613 312° West  Level Estimated
Sat 10:06:00 AM 68.3741 4.1034 312° West  Level Estimated
Sat 10:07:00 AM 68.4585 3.8435 312° West  Level Estimated
Sat 10:08:00 AM 68.5424 3.5817 311° West  Level Estimated
Sat 10:09:00 AM 68.6260 3.3180 311° West  Level Estimated
Sat 10:10:00 AM 68.7092 3.0522 311° West  Level Estimated
Sat 10:11:00 AM 68.7919 2.7845 311° West  Level Estimated
Sat 10:12:00 AM 68.8743 2.5148 310° West  Level Estimated
Sat 10:13:00 AM 68.9561 2.2431 310° West  Level Estimated
Sat 10:14:00 AM 69.0376 1.9694 310° West  Level Estimated
Sat 10:15:00 AM 69.1186 1.6937 310° West  Level Estimated
Sat 10:16:00 AM 69.1992 1.4158 309° West  Level Estimated
Sat 10:17:00 AM 69.2793 1.1360 309° West  Level Estimated
Sat 10:18:00 AM 69.3589 0.8540 309° West  Level Estimated
Sat 10:19:00 AM 69.4381 0.5700 309° West  Level Estimated
Sat 10:20:00 AM 69.5169 0.2839 308° West  Level Estimated
Sat 10:21:00 AM 69.5952 -0.0043 308° West  Level Estimated
Sat 10:22:00 AM 69.6729 -0.2947 308° West  Level Estimated
Sat 10:23:00 AM 69.7502 -0.5871 307° West  Level Estimated
Sat 10:24:00 AM 69.8271 -0.8817 307° West  Level Estimated
Sat 10:25:00 AM 69.9034 -1.1785 307° West  Level Estimated
Sat 10:26:00 AM 69.9792 -1.4774 307° West  Level Estimated
Sat 10:27:00 AM 70.0545 -1.7785 306° West  Level Estimated
Sat 10:28:00 AM 70.1293 -2.0818 306° West  Level Estimated
Sat 10:29:00 AM 70.2036 -2.3873 306° West  Level Estimated
Sat 10:30:00 AM 70.2774 -2.6949 305° West  Level Estimated
Sat 10:31:00 AM 70.3506 -3.0048 305° West  Level Estimated
Sat 10:32:00 AM 70.4233 -3.3169 305° West  Level Estimated
Sat 10:33:00 AM 70.4955 -3.6312 305° West  Level Estimated
Sat 10:34:00 AM 70.5671 -3.9478 304° West  Level Estimated
Sat 10:35:00 AM 70.6382 -4.2666 304° West  Level Estimated
Sat 10:36:00 AM 70.7087 -4.5876 304° West  Level Estimated
Sat 10:37:00 AM 70.7786 -4.9110 303° West  Level Estimated
Sat 10:38:00 AM 70.8480 -5.2365 303° West  Level Estimated
Sat 10:39:00 AM 70.9168 -5.5644 303° West  Level Estimated
Sat 10:40:00 AM 70.9850 -5.8945 302° West  Level Estimated
Sat 10:41:00 AM 71.0526 -6.2269 302° West  Level Estimated
Sat 10:42:00 AM 71.1196 -6.5615 302° West  Level Estimated
Sat 10:43:00 AM 71.1860 -6.8985 302° West  Level Estimated
Sat 10:44:00 AM 71.2518 -7.2378 301° West  Level Estimated
Sat 10:45:00 AM 71.3170 -7.5793 301° West  Level Estimated
Sat 10:46:00 AM 71.3816 -7.9231 301° West  Level Estimated
Sat 10:47:00 AM 71.4455 -8.2693 300° West  Level Estimated
Sat 10:48:00 AM 71.5089 -8.6177 300° West  Level Estimated
Sat 10:49:00 AM 71.5715 -8.9684 300° West  Level Estimated
Sat 10:50:00 AM 71.6336 -9.3215 299° West  Level Estimated
Sat 10:51:00 AM 71.6949 -9.6768 299° West  Level Estimated
Sat 10:52:00 AM 71.7556 -10.0344 299° West  Level Estimated
Sat 10:53:00 AM 71.8156 -10.3943 298° West  Level Estimated
Sat 10:54:00 AM 71.8750 -10.7565 298° West  Level Estimated
Sat 10:55:00 AM 71.9337 -11.1210 298° West  Level Estimated
Sat 10:56:00 AM 71.9917 -11.4878 297° West  Level Estimated
Sat 10:57:00 AM 72.0490 -11.8568 297° West  Level Estimated
Sat 10:58:00 AM 72.1056 -12.2281 297° West  Level Estimated
Sat 10:59:00 AM 72.1615 -12.6017 296° West  Level Estimated
Sat 11:00:00 AM 72.2166 -12.9776 296° West  Level Estimated
Sat 11:01:00 AM 72.2711 -13.3557 295° West  Level Estimated
Sat 11:02:00 AM 72.3248 -13.7360 295° West  Level Estimated
Sat 11:03:00 AM 72.3778 -14.1186 295° West  Level Estimated
Sat 11:04:00 AM 72.4300 -14.5033 294° West  Level Estimated
Sat 11:05:00 AM 72.4815 -14.8903 294° West  Level Estimated
Sat 11:06:00 AM 72.5323 -15.2795 294° West  Level Estimated
Sat 11:07:00 AM 72.5823 -15.6709 293° West  Level Estimated
Sat 11:08:00 AM 72.6315 -16.0644 293° West  Level Estimated
Sat 11:09:00 AM 72.6799 -16.4601 293° West  Level Estimated
Sat 11:10:00 AM 72.7276 -16.8579 292° West  Level Estimated
Sat 11:11:00 AM 72.7744 -17.2578 292° West  Level Estimated
Sat 11:12:00 AM 72.8205 -17.6598 291° West  Level Estimated
Sat 11:13:00 AM 72.8658 -18.0639 291° West  Level Estimated
Sat 11:14:00 AM 72.9103 -18.4701 291° West  Level Estimated
Sat 11:15:00 AM 72.9539 -18.8783 290° West  Level Estimated
Sat 11:16:00 AM 72.9968 -19.2885 290° West  Level Estimated
Sat 11:17:00 AM 73.0388 -19.7007 289° West  Level Estimated
Sat 11:18:00 AM 73.0800 -20.1149 289° West  Level Estimated
Sat 11:19:00 AM 73.1203 -20.5310 289° West  Level Estimated
Sat 11:20:00 AM 73.1598 -20.9490 288° West  Level Estimated
Sat 11:21:00 AM 73.1985 -21.3690 288° West  Level Estimated
Sat 11:22:00 AM 73.2363 -21.7907 287° West  Level Estimated
Sat 11:23:00 AM 73.2732 -22.2143 287° West  Level Estimated
Sat 11:24:00 AM 73.3093 -22.6398 287° West  Level Estimated
Sat 11:25:00 AM 73.3445 -23.0669 286° West  Level Estimated
Sat 11:26:00 AM 73.3788 -23.4958 286° West  Level Estimated
Sat 11:27:00 AM 73.4122 -23.9265 285° West  Level Estimated
Sat 11:28:00 AM 73.4448 -24.3587 285° West  Level Estimated
Sat 11:29:00 AM 73.4764 -24.7927 285° West  Level Estimated
Sat 11:30:00 AM 73.5072 -25.2282 284° West  Level Estimated
Sat 11:31:00 AM 73.5370 -25.6653 284° West  Level Estimated
Sat 11:32:00 AM 73.5660 -26.1038 283° West  Level Estimated
Sat 11:33:00 AM 73.5940 -26.5439 283° West  Level Estimated
Sat 11:34:00 AM 73.6211 -26.9854 282° West  Level Estimated
Sat 11:35:00 AM 73.6473 -27.4283 282° West  Level Estimated
Sat 11:36:00 AM 73.6726 -27.8726 282° West  Level Estimated
Sat 11:37:00 AM 73.6969 -28.3182 281° West  Level Estimated
Sat 11:38:00 AM 73.7203 -28.7650 281° West  Level Estimated
Sat 11:39:00 AM 73.7427 -29.2131 280° West  Level Estimated
Sat 11:40:00 AM 73.7642 -29.6624 280° West  Level Estimated
Sat 11:41:00 AM 73.7848 -30.1128 279° West  Level Estimated
Sat 11:42:00 AM 73.8044 -30.5642 279° West  Level Estimated
Sat 11:43:00 AM 73.8230 -31.0168 279° West  Level Estimated
Sat 11:44:00 AM 73.8407 -31.4703 278° West  Level Estimated
Sat 11:45:00 AM 73.8574 -31.9247 278° West  Level Estimated
Sat 11:46:00 AM 73.8732 -32.3801 277° West  Level Estimated
Sat 11:47:00 AM 73.8880 -32.8362 277° West  Level Estimated
Sat 11:48:00 AM 73.9018 -33.2932 276° West  Level Estimated
Sat 11:49:00 AM 73.9147 -33.7509 276° West  Level Estimated
Sat 11:50:00 AM 73.9266 -34.2093 276° West  Level Estimated
Sat 11:51:00 AM 73.9375 -34.6684 275° West  Level Estimated
Sat 11:52:00 AM 73.9474 -35.1280 275° West  Level Estimated
Sat 11:53:00 AM 73.9563 -35.5881 274° West  Level Estimated
Sat 11:54:00 AM 73.9643 -36.0487 274° West  Level Estimated
Sat 11:55:00 AM 73.9713 -36.5097 273° West  Level Estimated
Sat 11:56:00 AM 73.9772 -36.9711 273° West  Level Estimated
Sat 11:57:00 AM 73.9822 -37.4328 272° West  Level Estimated
Sat 11:58:00 AM 73.9863 -37.8948 272° West  Level Estimated
Sat 11:59:00 AM 73.9893 -38.3569 272° West  Level Estimated
Sat 12:00:00 PM 73.9913 -38.8192 271° West  Level Estimated
Sat 12:01:00 PM 73.9924 -39.2816 271° West  Level Estimated
Sat 12:02:00 PM 73.9924 -39.7440 270° West  Level Estimated
Sat 12:03:00 PM 73.9915 -40.2064 270° West  Level Estimated
Sat 12:04:00 PM 73.9896 -40.6687 269° West  Level Estimated
Sat 12:05:00 PM 73.9867 -41.1309 269° West  Level Estimated
Sat 12:06:00 PM 73.9828 -41.5928 268° West  Level Estimated
Sat 12:07:00 PM 73.9779 -42.0546 268° West  Level Estimated
Sat 12:08:00 PM 73.9720 -42.5160 268° West  Level Estimated
Sat 12:09:00 PM 73.9652 -42.9771 267° West  Level Estimated
Sat 12:10:00 PM 73.9574 -43.4377 267° West  Level Estimated
Sat 12:11:00 PM 73.9485 -43.8979 266° West  Level Estimated
Sat 12:12:00 PM 73.9387 -44.3576 266° West  Level Estimated
Sat 12:13:00 PM 73.9279 -44.8167 265° West  Level Estimated
Sat 12:14:00 PM 73.9162 -45.2752 265° West  Level Estimated
Sat 12:15:00 PM 73.9035 -45.7330 264° West  Level Estimated
Sat 12:16:00 PM 73.8897 -46.1901 264° West  Level Estimated
Sat 12:17:00 PM 73.8751 -46.6463 264° West  Level Estimated
Sat 12:18:00 PM 73.8594 -47.1018 263° West  Level Estimated
Sat 12:19:00 PM 73.8428 -47.5564 263° West  Level Estimated
Sat 12:20:00 PM 73.8252 -48.0100 262° West  Level Estimated
Sat 12:21:00 PM 73.8067 -48.4626 262° West  Level Estimated
Sat 12:22:00 PM 73.7872 -48.9142 261° West  Level Estimated
Sat 12:23:00 PM 73.7668 -49.3648 261° West  Level Estimated
Sat 12:24:00 PM 73.7454 -49.8142 261° West  Level Estimated
Sat 12:25:00 PM 73.7231 -50.2624 260° West  Level Estimated
Sat 12:26:00 PM 73.6998 -50.7094 260° West  Level Estimated
Sat 12:27:00 PM 73.6756 -51.1551 259° West  Level Estimated
Sat 12:28:00 PM 73.6505 -51.5996 259° West  Level Estimated
Sat 12:29:00 PM 73.6244 -52.0426 258° West  Level Estimated
Sat 12:30:00 PM 73.5974 -52.4843 258° West  Level Estimated
Sat 12:31:00 PM 73.5695 -52.9246 258° West  Level Estimated
Sat 12:32:00 PM 73.5406 -53.3634 257° West  Level Estimated
Sat 12:33:00 PM 73.5109 -53.8006 257° West  Level Estimated
Sat 12:34:00 PM 73.4803 -54.2363 256° West  Level Estimated
Sat 12:35:00 PM 73.4487 -54.6704 256° West  Level Estimated
Sat 12:36:00 PM 73.4163 -55.1029 255° West  Level Estimated
Sat 12:37:00 PM 73.3830 -55.5338 255° West  Level Estimated
Sat 12:38:00 PM 73.3487 -55.9629 255° West  Level Estimated
Sat 12:39:00 PM 73.3137 -56.3903 254° West  Level Estimated
Sat 12:40:00 PM 73.2777 -56.8159 254° West  Level Estimated
Sat 12:41:00 PM 73.2409 -57.2397 253° West  Level Estimated
Sat 12:42:00 PM 73.2032 -57.6617 253° West  Level Estimated
Sat 12:43:00 PM 73.1646 -58.0819 253° West  Level Estimated
Sat 12:44:00 PM 73.1252 -58.5001 252° West  Level Estimated
Sat 12:45:00 PM 73.0850 -58.9165 252° West  Level Estimated
Sat 12:46:00 PM 73.0439 -59.3309 251° West  Level Estimated
Sat 12:47:00 PM 73.0020 -59.7434 251° West  Level Estimated
Sat 12:48:00 PM 72.9593 -60.1538 251° West  Level Estimated
Sat 12:49:00 PM 72.9157 -60.5623 250° West  Level Estimated
Sat 12:50:00 PM 72.8713 -60.9687 250° West  Level Estimated
Sat 12:51:00 PM 72.8261 -61.3730 249° West  Level Estimated
Sat 12:52:00 PM 72.7802 -61.7753 249° West  Level Estimated
Sat 12:53:00 PM 72.7334 -62.1755 249° West  Level Estimated
Sat 12:54:00 PM 72.6858 -62.5736 248° West  Level Estimated
Sat 12:55:00 PM 72.6375 -62.9695 248° West  Level Estimated
Sat 12:56:00 PM 72.5884 -63.3633 248° West  Level Estimated
Sat 12:57:00 PM 72.5385 -63.7549 247° West  Level Estimated
Sat 12:58:00 PM 72.4878 -64.1444 247° West  Level Estimated
Sat 12:59:00 PM 72.4364 -64.5316 246° West  Level Estimated
Sat 01:00:00 PM 72.3842 -64.9167 246° West  Level Estimated
Sat 01:01:00 PM 72.3314 -65.2995 246° West  Level Estimated
Sat 01:02:00 PM 72.2777 -65.6801 245° Southwest  Level Estimated
Sat 01:03:00 PM 72.2234 -66.0585 245° Southwest  Level Estimated
Sat 01:04:00 PM 72.1689 -66.4307 245° Southwest  Level Estimated
Sat 01:05:00 PM 72.1137 -66.8007 244° Southwest  Level Estimated
Sat 01:06:00 PM 72.0578 -67.1684 244° Southwest  Level Estimated
Sat 01:07:00 PM 72.0012 -67.5340 244° Southwest  Level Estimated
Sat 01:08:00 PM 71.9439 -67.8972 243° Southwest  Level Estimated
Sat 01:09:00 PM 71.8860 -68.2583 243° Southwest  Level Estimated
Sat 01:10:00 PM 71.8274 -68.6171 242° Southwest  Level Estimated
Sat 01:11:00 PM 71.7681 -68.9737 242° Southwest  Level Estimated
Sat 01:12:00 PM 71.7082 -69.3281 242° Southwest  Level Estimated
Sat 01:13:00 PM 71.6476 -69.6802 241° Southwest  Level Estimated
Sat 01:14:00 PM 71.5864 -70.0300 241° Southwest  Level Estimated
Sat 01:15:00 PM 71.5245 -70.3776 241° Southwest  Level Estimated
Sat 01:16:00 PM 71.4620 -70.7230 240° Southwest  Level Estimated
Sat 01:17:00 PM 71.3989 -71.0661 240° Southwest  Level Estimated
Sat 01:18:00 PM 71.3352 -71.4069 240° Southwest  Level Estimated
Sat 01:19:00 PM 71.2709 -71.7455 240° Southwest  Level Estimated
Sat 01:20:00 PM 71.2059 -72.0819 239° Southwest  Level Estimated
Sat 01:21:00 PM 71.1404 -72.4160 239° Southwest  Level Estimated
Sat 01:22:00 PM 71.0743 -72.7479 239° Southwest  Level Estimated
Sat 01:23:00 PM 71.0076 -73.0775 238° Southwest  Level Estimated
Sat 01:24:00 PM 70.9403 -73.4049 238° Southwest  Level Estimated
Sat 01:25:00 PM 70.8724 -73.7301 238° Southwest  Level Estimated
Sat 01:26:00 PM 70.8040 -74.0530 237° Southwest  Level Estimated
Sat 01:27:00 PM 70.7350 -74.3738 237° Southwest  Level Estimated
Sat 01:28:00 PM 70.6654 -74.6923 237° Southwest  Level Estimated
Sat 01:29:00 PM 70.5953 -75.0086 236° Southwest  Level Estimated
Sat 01:30:00 PM 70.5247 -75.3227 236° Southwest  Level Estimated
Sat 01:31:00 PM 70.4535 -75.6347 236° Southwest  Level Estimated
Sat 01:32:00 PM 70.3818 -75.9444 236° Southwest  Level Estimated
Sat 01:33:00 PM 70.3095 -76.2520 235° Southwest  Level Estimated
Sat 01:34:00 PM 70.2368 -76.5574 235° Southwest  Level Estimated
Sat 01:35:00 PM 70.1635 -76.8606 235° Southwest  Level Estimated
Sat 01:36:00 PM 70.0897 -77.1617 234° Southwest  Level Estimated
Sat 01:37:00 PM 70.0154 -77.4607 234° Southwest  Level Estimated
Sat 01:38:00 PM 69.9407 -77.7575 234° Southwest  Level Estimated
Sat 01:39:00 PM 69.8654 -78.0522 234° Southwest  Level Estimated
Sat 01:40:00 PM 69.7896 -78.3448 233° Southwest  Level Estimated
Sat 01:41:00 PM 69.7134 -78.6353 233° Southwest  Level Estimated
Sat 01:42:00 PM 69.6367 -78.9237 233° Southwest  Level Estimated
Sat 01:43:00 PM 69.5595 -79.2100 232° Southwest  Level Estimated
Sat 01:44:00 PM 69.4818 -79.4942 232° Southwest  Level Estimated
Sat 01:45:00 PM 69.4037 -79.7764 232° Southwest  Level Estimated
Sat 01:46:00 PM 69.3252 -80.0566 232° Southwest  Level Estimated
Sat 01:47:00 PM 69.2461 -80.3347 231° Southwest  Level Estimated
Sat 01:48:00 PM 69.1667 -80.6108 231° Southwest  Level Estimated
Sat 01:49:00 PM 69.0868 -80.8849 231° Southwest  Level Estimated
Sat 01:50:00 PM 69.0064 -81.1569 231° Southwest  Level Estimated
Sat 01:51:00 PM 68.9257 -81.4270 230° Southwest  Level Estimated
Sat 01:52:00 PM 68.8445 -81.6952 230° Southwest  Level Estimated
Sat 01:53:00 PM 68.7629 -81.9613 230° Southwest  Level Estimated
Sat 01:54:00 PM 68.6809 -82.2255 230° Southwest  Level Estimated
Sat 01:55:00 PM 68.5984 -82.4878 229° Southwest  Level Estimated
Sat 01:56:00 PM 68.5156 -82.7482 229° Southwest  Level Estimated
Sat 01:57:00 PM 68.4324 -83.0066 229° Southwest  Level Estimated
Sat 01:58:00 PM 68.3487 -83.2631 229° Southwest  Level Estimated
Sat 01:59:00 PM 68.2647 -83.5178 228° Southwest  Level Estimated
Sat 02:00:00 PM 68.1803 -83.7706 228° Southwest  Level Estimated
Sat 02:01:00 PM 68.0955 -84.0215 228° Southwest  Level Estimated
Sat 02:02:00 PM 68.0104 -84.2706 228° Southwest  Level Estimated
Sat 02:03:00 PM 67.9248 -84.5179 227° Southwest  Level Estimated
Sat 02:04:00 PM 67.8389 -84.7633 227° Southwest  Level Estimated
Sat 02:05:00 PM 67.7526 -85.0069 227° Southwest  Level Estimated
Sat 02:06:00 PM 67.6660 -85.2488 227° Southwest  Level Estimated
Sat 02:07:00 PM 67.5790 -85.4888 227° Southwest  Level Estimated
Sat 02:08:00 PM 67.4917 -85.7271 226° Southwest  Level Estimated
Sat 02:09:00 PM 67.4040 -85.9637 226° Southwest  Level Estimated
Sat 02:10:00 PM 67.3160 -86.1985 226° Southwest  Level Estimated
Sat 02:11:00 PM 67.2276 -86.4316 226° Southwest  Level Estimated
Sat 02:12:00 PM 67.1389 -86.6630 225° Southwest  Level Estimated
Sat 02:13:00 PM 67.0498 -86.8927 225° Southwest  Level Estimated
Sat 02:14:00 PM 66.9605 -87.1207 225° Southwest  Level Estimated
Sat 02:15:00 PM 66.8708 -87.3470 225° Southwest  Level Estimated
Sat 02:16:00 PM 66.7808 -87.5717 225° Southwest  Level Estimated
Sat 02:17:00 PM 66.6904 -87.7947 224° Southwest  Level Estimated
Sat 02:18:00 PM 66.5998 -88.0161 224° Southwest  Level Estimated
Sat 02:19:00 PM 66.5088 -88.2359 224° Southwest  Level Estimated
Sat 02:20:00 PM 66.4176 -88.4541 224° Southwest  Level Estimated
Sat 02:21:00 PM 66.3260 -88.6707 224° Southwest  Level Estimated
Sat 02:22:00 PM 66.2341 -88.8857 223° Southwest  Level Estimated
Sat 02:23:00 PM 66.1420 -89.0992 223° Southwest  Level Estimated
Sat 02:24:00 PM 66.0495 -89.3111 223° Southwest  Level Estimated
Sat 02:25:00 PM 65.9568 -89.5215 223° Southwest  Level Estimated
Sat 02:26:00 PM 65.8638 -89.7303 223° Southwest  Level Estimated
Sat 02:27:00 PM 65.7705 -89.9377 222° Southwest  Level Estimated
Sat 02:28:00 PM 65.6769 -90.1435 222° Southwest  Level Estimated
Sat 02:29:00 PM 65.5830 -90.3479 222° Southwest  Level Estimated
Sat 02:30:00 PM 65.4889 -90.5508 222° Southwest  Level Estimated
Sat 02:31:00 PM 65.3945 -90.7522 222° Southwest  Level Estimated
Sat 02:32:00 PM 65.2998 -90.9522 221° Southwest  Level Estimated
Sat 02:33:00 PM 65.2049 -91.1507 221° Southwest  Level Estimated
Sat 02:34:00 PM 65.1097 -91.3478 221° Southwest  Level Estimated
Sat 02:35:00 PM 65.0143 -91.5436 221° Southwest  Level Estimated
Sat 02:36:00 PM 64.9185 -91.7379 221° Southwest  Level Estimated
Sat 02:37:00 PM 64.8226 -91.9308 221° Southwest  Level Estimated
Sat 02:38:00 PM 64.7264 -92.1224 220° Southwest  Level Estimated
Sat 02:39:00 PM 64.6300 -92.3126 220° Southwest  Level Estimated
Sat 02:40:00 PM 64.5333 -92.5015 220° Southwest  Level Estimated
Sat 02:41:00 PM 64.4363 -92.6890 220° Southwest  Level Estimated
Sat 02:42:00 PM 64.3392 -92.8752 220° Southwest  Level Estimated
Sat 02:43:00 PM 64.2418 -93.0601 220° Southwest  Level Estimated
Sat 02:44:00 PM 64.1441 -93.2437 219° Southwest  Level Estimated
Sat 02:45:00 PM 64.0463 -93.4260 219° Southwest  Level Estimated
Sat 02:46:00 PM 63.9482 -93.6070 219° Southwest  Level Estimated
Sat 02:47:00 PM 63.8499 -93.7868 219° Southwest  Level Estimated
Sat 02:48:00 PM 63.7513 -93.9653 219° Southwest  Level Estimated
Sat 02:49:00 PM 63.6526 -94.1425 219° Southwest  Level Estimated
Sat 02:50:00 PM 63.5536 -94.3186 218° Southwest  Level Estimated
Sat 02:51:00 PM 63.4544 -94.4934 218° Southwest  Level Estimated
Sat 02:52:00 PM 63.3550 -94.6670 218° Southwest  Level Estimated
Sat 02:53:00 PM 63.2554 -94.8394 218° Southwest  Level Estimated
Sat 02:54:00 PM 63.1556 -95.0106 218° Southwest  Level Estimated
Sat 02:55:00 PM 63.0556 -95.1807 218° Southwest  Level Estimated
Sat 02:56:00 PM 62.9554 -95.3496 217° Southwest  Level Estimated
Sat 02:57:00 PM 62.8549 -95.5173 217° Southwest  Level Estimated
Sat 02:58:00 PM 62.7543 -95.6839 217° Southwest  Level Estimated
Sat 02:59:00 PM 62.6535 -95.8493 217° Southwest  Level Estimated
Sat 03:00:00 PM 62.5525 -96.0136 217° Southwest  Level Estimated
Sat 03:01:00 PM 62.4513 -96.1769 217° Southwest  Level Estimated
Sat 03:02:00 PM 62.3499 -96.3390 217° Southwest  Level Estimated
Sat 03:03:00 PM 62.2483 -96.5000 216° Southwest  Level Estimated
Sat 03:04:00 PM 62.1466 -96.6599 216° Southwest  Level Estimated
Sat 03:05:00 PM 62.0446 -96.8188 216° Southwest  Level Estimated
Sat 03:06:00 PM 61.9425 -96.9766 216° Southwest  Level Estimated
Sat 03:07:00 PM 61.8402 -97.1333 216° Southwest  Level Estimated
Sat 03:08:00 PM 61.7377 -97.2890 216° Southwest  Level Estimated
Sat 03:09:00 PM 61.6351 -97.4437 216° Southwest  Level Estimated
Sat 03:10:00 PM 61.5322 -97.5974 215° Southwest  Level Estimated
Sat 03:11:00 PM 61.4292 -97.7500 215° Southwest  Level Estimated
Sat 03:12:00 PM 61.3260 -97.9016 215° Southwest  Level Estimated
Sat 03:13:00 PM 61.2227 -98.0523 215° Southwest  Level Estimated
Sat 03:14:00 PM 61.1192 -98.2019 215° Southwest  Level Estimated
Sat 03:15:00 PM 61.0155 -98.3506 215° Southwest  Level Estimated
Sat 03:16:00 PM 60.9117 -98.4983 215° Southwest  Level Estimated
Sat 03:17:00 PM 60.8077 -98.6450 215° Southwest  Level Estimated
Sat 03:18:00 PM 60.7036 -98.7908 214° Southwest  Level Estimated
Sat 03:19:00 PM 60.5993 -98.9356 214° Southwest  Level Estimated
Sat 03:20:00 PM 60.4948 -99.0795 214° Southwest  Level Estimated
Sat 03:20:36 PM 59.5333 -96.9333 214° Southwest 440 506 36,000  Level Edmonton Center
Sat 03:21:00 PM 60.3902 -99.2225 214° Southwest  Level Estimated
Sat 03:21:36 PM 59.4333 -97.0667 214° Southwest 430 495 36,000  Level Edmonton Center
Sat 03:22:00 PM 60.2854 -99.3646 214° Southwest  Level Estimated
Sat 03:22:36 PM 59.3333 -97.1833 211° Southwest 440 506 36,000  Level Edmonton Center
Sat 03:23:00 PM 60.1805 -99.5058 214° Southwest  Level Estimated
Sat 03:23:36 PM 59.2167 -97.3167 210° Southwest 430 495 36,000  Level Edmonton Center
Sat 03:24:00 PM 60.0754 -99.6460 214° Southwest  Level Estimated
Sat 03:24:36 PM 59.1333 -97.4333 216° Southwest 430 495 36,000  Level Edmonton Center
Sat 03:25:00 PM 59.9702 -99.7854 214° Southwest  Level Estimated
Sat 03:25:36 PM 59.0167 -97.6000 216° Southwest 440 506 36,000  Level Edmonton Center
Sat 03:26:36 PM 58.9167 -97.7167 211° Southwest 440 506 36,000  Level Edmonton Center
Sat 03:27:36 PM 58.8333 -97.8333 216° Southwest 440 506 36,000  Level Edmonton Center
Sat 03:28:36 PM 58.7167 -97.9833 214° Southwest 430 495 36,000  Level Edmonton Center
Sat 03:29:36 PM 58.6167 -98.1000 211° Southwest 440 506 36,000  Level Edmonton Center
Sat 03:30:36 PM 58.5000 -98.2333 211° Southwest 430 495 36,000  Level Edmonton Center
Sat 03:31:36 PM 58.4167 -98.3500 216° Southwest 430 495 36,000  Level Edmonton Center
Sat 03:32:32 PM 58.3167 -98.4833 215° Southwest 440 506 36,000  Level Winnipeg Center
Sat 03:33:33 PM 58.2167 -98.6333 218° Southwest 440 506 36,000  Level Winnipeg Center
Sat 03:34:32 PM 58.1167 -98.7333 208° Southwest 440 506 36,000  Level Winnipeg Center
Sat 03:35:32 PM 58.0167 -98.8500 212° Southwest 440 506 36,000  Level Winnipeg Center
Sat 03:36:32 PM 57.9000 -99.0000 214° Southwest 440 506 36,000  Level Winnipeg Center
Sat 03:37:36 PM 57.7833 -99.0667 197° South 430 495 36,000  Level Edmonton Center
Sat 03:38:36 PM 57.6833 -99.1833 212° Southwest 430 495 36,000  Level Edmonton Center
Sat 03:39:32 PM 57.5833 -99.3333 219° Southwest 440 506 36,000  Level Winnipeg Center
Sat 03:40:32 PM 57.4833 -99.4500 212° Southwest 430 495 36,000  Level Winnipeg Center
Sat 03:41:32 PM 57.3833 -99.5667 212° Southwest 430 495 36,000  Level Winnipeg Center
Sat 03:42:32 PM 57.2833 -99.6833 212° Southwest 430 495 36,000  Level Winnipeg Center
Sat 03:43:33 PM 57.1833 -99.8000 212° Southwest 430 495 36,000  Level Winnipeg Center
Sat 03:44:32 PM 57.0667 -99.9167 209° Southwest 430 495 36,000  Level Winnipeg Center
Sat 03:45:32 PM 56.9667 -100.0333 212° Southwest 430 495 36,000  Level Winnipeg Center
Sat 03:46:32 PM 56.8667 -100.1167 204° Southwest 440 506 36,000  Level Winnipeg Center
Sat 03:47:32 PM 56.7500 -100.2333 209° Southwest 430 495 36,000  Level Winnipeg Center
Sat 03:48:33 PM 56.6500 -100.3167 205° Southwest 430 495 36,000  Level Winnipeg Center
Sat 03:49:32 PM 56.5333 -100.4167 205° Southwest 440 506 36,000  Level Winnipeg Center
Sat 03:50:32 PM 56.4167 -100.5000 202° Southwest 440 506 36,000  Level Winnipeg Center
Sat 03:51:32 PM 56.3167 -100.6167 213° Southwest 440 506 36,000  Level Winnipeg Center
Sat 03:52:32 PM 56.2000 -100.7167 206° Southwest 440 506 36,000  Level Winnipeg Center
Sat 03:53:33 PM 56.1000 -100.8000 205° Southwest 440 506 36,000  Level Winnipeg Center
Sat 03:54:32 PM 55.9833 -100.9167 209° Southwest 440 506 36,000  Level Winnipeg Center
Sat 03:55:32 PM 55.8667 -100.9833 198° South 440 506 36,000  Level Winnipeg Center
Sat 03:56:32 PM 55.7500 -101.1000 209° Southwest 440 506 36,000  Level Winnipeg Center
Sat 03:57:32 PM 55.6500 -101.1833 205° Southwest 440 506 36,000  Level Winnipeg Center
Sat 03:58:32 PM 55.5333 -101.2833 206° Southwest 440 506 36,000  Level Winnipeg Center
Sat 03:59:32 PM 55.4167 -101.3833 206° Southwest 440 506 36,000  Level Winnipeg Center
Sat 04:00:32 PM 55.3000 -101.4667 202° Southwest 440 506 36,000  Level Winnipeg Center
Sat 04:01:32 PM 55.2000 -101.5667 210° Southwest 430 495 36,000  Level Winnipeg Center
Sat 04:02:32 PM 55.1000 -101.6500 205° Southwest 440 506 36,000  Level Winnipeg Center
Sat 04:08:02 PM 54.4960 -102.1330 205° Southwest 445 512 36,000  Level FlightAware ADS-B
Sat 04:08:42 PM 54.4200 -102.1930 205° Southwest 446 513 36,000  Level FlightAware ADS-B
Sat 04:09:17 PM 54.3570 -102.2430 205° Southwest 445 512 36,000  Level FlightAware ADS-B
Sat 04:10:07 PM 54.2630 -102.3170 205° Southwest 446 513 36,000  Level FlightAware ADS-B
Sat 04:10:47 PM 54.1800 -102.3820 205° Southwest 447 514 36,000  Level FlightAware ADS-B
Sat 04:11:27 PM 54.1120 -102.4340 204° Southwest 447 514 36,000  Level FlightAware ADS-B
Sat 04:12:27 PM 54.0090 -102.5140 205° Southwest 447 514 36,000  Level FlightAware ADS-B
Sat 04:13:07 PM 53.9250 -102.5790 205° Southwest 447 514 36,000  Level FlightAware ADS-B
Sat 04:14:17 PM 53.8010 -102.6740 204° Southwest 447 514 36,000  Level FlightAware ADS-B
Sat 04:15:07 PM 53.6990 -102.7520 204° Southwest 446 513 36,000  Level FlightAware ADS-B
Sat 04:15:57 PM 53.6040 -102.8250 205° Southwest 445 512 36,000  Level FlightAware ADS-B
Sat 04:16:37 PM 53.5300 -102.8800 204° Southwest 445 512 36,000  Level FlightAware ADS-B
Sat 04:17:17 PM 53.4550 -102.9370 204° Southwest 446 513 36,000  Level FlightAware ADS-B
Sat 04:18:02 PM 53.3750 -102.9960 204° Southwest 445 512 36,000  Level FlightAware ADS-B
Sat 04:18:42 PM 53.3110 -103.0440 204° Southwest 445 512 36,000  Level FlightAware ADS-B
Sat 04:19:22 PM 53.2470 -103.0910 204° Southwest 445 512 36,000  Level FlightAware ADS-B
Sat 04:20:02 PM 53.1830 -103.1390 204° Southwest 445 512 36,000  Level FlightAware ADS-B
Sat 04:20:52 PM 53.1030 -103.1980 204° Southwest 445 512 36,000  Level FlightAware ADS-B
Sat 04:21:32 PM 53.0390 -103.2460 204° Southwest 445 512 36,000  Level FlightAware ADS-B
Sat 04:22:12 PM 52.9750 -103.2930 204° Southwest 445 512 36,000  Level FlightAware ADS-B
Sat 04:22:52 PM 52.9120 -103.3400 204° Southwest 445 512 36,000  Level FlightAware ADS-B
Sat 04:23:32 PM 52.8480 -103.3870 204° Southwest 445 512 36,000  Level FlightAware ADS-B
Sat 04:24:22 PM 52.7680 -103.4460 204° Southwest 445 512 36,000  Level FlightAware ADS-B
Sat 04:25:02 PM 52.7040 -103.4930 204° Southwest 445 512 36,000  Level FlightAware ADS-B
Sat 04:25:42 PM 52.6400 -103.5400 204° Southwest 445 512 36,000  Level FlightAware ADS-B
Sat 04:26:22 PM 52.5760 -103.5870 204° Southwest 445 512 36,000  Level FlightAware ADS-B
Sat 04:27:02 PM 52.5120 -103.6340 204° Southwest 445 512 36,000  Level FlightAware ADS-B
Sat 04:27:36 PM 52.2667 -103.7833 204° Southwest 440 506 36,000  Level Edmonton Center
Sat 04:28:32 PM 52.1500 -103.8833 208° Southwest 450 518 36,000  Level Winnipeg Center
Sat 04:29:32 PM 52.0500 -103.9667 207° Southwest 450 518 36,000  Level Winnipeg Center
Sat 04:30:32 PM 51.9333 -104.0500 204° Southwest 460 529 36,000  Level Winnipeg Center
Sat 04:31:32 PM 51.8000 -104.1500 205° Southwest 460 529 36,000  Level Winnipeg Center
Sat 04:32:32 PM 51.7000 -104.2167 202° Southwest 460 529 36,000  Level Winnipeg Center
Sat 04:33:32 PM 51.5667 -104.3000 201° Southwest 460 529 36,000  Level Winnipeg Center
Sat 04:39:17 PM 50.9100 -104.7300 201° Southwest 466 536 36,000  Level FlightAware ADS-B
Sat 04:39:57 PM 50.8360 -104.7790 203° Southwest 467 537 36,000  Level FlightAware ADS-B
Sat 04:40:42 PM 50.7370 -104.8440 203° Southwest 467 537 36,000  Level FlightAware ADS-B
Sat 04:41:22 PM 50.6580 -104.8960 203° Southwest 466 536 36,000  Level FlightAware ADS-B
Sat 04:42:02 PM 50.5930 -104.9400 203° Southwest 465 535 36,000  Level FlightAware ADS-B
Sat 04:42:37 PM 50.5160 -104.9950 204° Southwest 466 536 36,000  Level FlightAware ADS-B
Sat 04:43:27 PM 50.4230 -105.0590 204° Southwest 469 540 36,000  Level FlightAware ADS-B
Sat 04:44:12 PM 50.3270 -105.1230 203° Southwest 467 537 36,000  Level FlightAware ADS-B
Sat 04:44:47 PM 50.2660 -105.1640 203° Southwest 467 537 36,000  Level FlightAware ADS-B
Sat 04:45:37 PM 50.1820 -105.2200 203° Southwest 467 537 36,000  Level FlightAware ADS-B
Sat 04:46:17 PM 50.1140 -105.2650 203° Southwest 467 537 36,000  Level FlightAware ADS-B
Sat 04:46:57 PM 50.0470 -105.3090 203° Southwest 467 537 36,000  Level FlightAware ADS-B
Sat 04:47:37 PM 49.9790 -105.3540 203° Southwest 467 537 36,000  Level FlightAware ADS-B
Sat 04:48:17 PM 49.9110 -105.3990 203° Southwest 467 537 36,000  Level FlightAware ADS-B
Sat 04:48:57 PM 49.8440 -105.4430 203° Southwest 467 537 36,000  Level FlightAware ADS-B
Sat 04:49:47 PM 49.7590 -105.4990 203° Southwest 467 537 36,000  Level FlightAware ADS-B
Sat 04:50:27 PM 49.6920 -105.5430 203° Southwest 467 537 36,000  Level FlightAware ADS-B
Sat 04:51:07 PM 49.6240 -105.5880 203° Southwest 467 537 36,000  Level FlightAware ADS-B
Sat 04:51:47 PM 49.5560 -105.6320 203° Southwest 467 537 36,000  Level FlightAware ADS-B
Sat 04:52:37 PM 49.4720 -105.6870 203° Southwest 467 537 36,000  Level FlightAware ADS-B
Sat 04:53:17 PM 49.4040 -105.7310 203° Southwest 467 537 36,000  Level FlightAware ADS-B
Sat 04:53:57 PM 49.3370 -105.7750 203° Southwest 467 537 36,000  Level FlightAware ADS-B
Sat 04:54:32 PM 49.0667 -105.9667 203° Southwest 460 529 36,000  Level Winnipeg Center
Sat 04:55:12 PM 49.0372 -105.9775 194° South 462 532 36,000  Level Salt Lake Center
Sat 04:56:13 PM 48.9042 -106.0836 208° Southwest 456 525 36,000  Level Salt Lake Center
Sat 04:57:15 PM 48.7986 -106.1769 210° Southwest 447 514 36,000  Level Salt Lake Center
Sat 04:58:16 PM 48.6911 -106.2717 210° Southwest 447 514 36,000  Level Salt Lake Center
Sat 04:59:18 PM 48.5819 -106.3647 209° Southwest 450 518 36,000  Level Salt Lake Center
Sat 05:00:19 PM 48.4739 -106.4578 210° Southwest 451 519 36,000  Level Salt Lake Center
Sat 05:01:20 PM 48.3644 -106.5514 210° Southwest 452 520 36,000  Level Salt Lake Center
Sat 05:02:22 PM 48.2558 -106.6444 210° Southwest 454 522 36,000  Level Salt Lake Center
Sat 05:03:23 PM 48.1464 -106.7389 210° Southwest 454 522 36,000  Level Salt Lake Center
Sat 05:04:25 PM 48.0175 -106.8494 210° Southwest 451 519 36,000  Level Salt Lake Center
Sat 05:05:26 PM 47.9064 -106.9433 210° Southwest 457 526 36,000  Level Salt Lake Center
Sat 05:06:27 PM 47.7956 -107.0364 209° Southwest 459 528 36,000  Level Salt Lake Center
Sat 05:07:29 PM 47.6842 -107.1275 209° Southwest 458 527 36,000  Level Salt Lake Center
Sat 05:08:30 PM 47.5736 -107.2211 210° Southwest 458 527 36,000  Level Salt Lake Center
Sat 05:09:32 PM 47.4597 -107.3144 209° Southwest 458 527 36,000  Level Salt Lake Center
Sat 05:10:33 PM 47.3353 -107.4156 209° Southwest 458 527 36,000  Level Salt Lake Center
Sat 05:11:35 PM 47.2294 -107.5025 209° Southwest 455 524 36,000  Level Salt Lake Center
Sat 05:12:36 PM 47.1072 -107.6039 209° Southwest 452 520 36,000  Level Salt Lake Center
Sat 05:13:37 PM 46.9994 -107.6892 208° Southwest 458 527 36,000  Level Salt Lake Center
Sat 05:14:39 PM 46.8900 -107.7772 209° Southwest 466 536 36,000  Level Salt Lake Center
Sat 05:15:40 PM 46.7647 -107.8781 209° Southwest 463 533 36,000  Level Salt Lake Center
Sat 05:16:42 PM 46.6553 -107.9647 209° Southwest 466 536 36,000  Level Salt Lake Center
Sat 05:17:43 PM 46.5283 -108.0622 208° Southwest 463 533 36,000  Level Salt Lake Center
Sat 05:18:45 PM 46.4194 -108.1489 209° Southwest 465 535 36,000  Level Salt Lake Center
Sat 05:19:46 PM 46.3108 -108.2344 209° Southwest 463 533 36,000  Level Salt Lake Center
Sat 05:20:48 PM 46.1842 -108.3336 208° Southwest 464 534 36,000  Level Salt Lake Center
Sat 05:21:49 PM 46.0756 -108.4192 209° Southwest 466 536 36,000  Level Salt Lake Center
Sat 05:22:51 PM 45.9472 -108.5189 208° Southwest 468 539 36,000  Level Salt Lake Center
Sat 05:23:52 PM 45.8372 -108.6044 208° Southwest 470 541 36,000  Level Salt Lake Center
Sat 05:24:54 PM 45.7025 -108.6964 205° Southwest 480 552 36,000  Level Salt Lake Center
Sat 05:25:56 PM 45.5883 -108.7708 205° Southwest 474 545 36,000  Level Salt Lake Center
Sat 05:26:57 PM 45.4728 -108.8467 205° Southwest 481 554 36,000  Level Salt Lake Center
Sat 05:27:59 PM 45.3389 -108.9358 205° Southwest 478 550 36,000  Level Salt Lake Center
Sat 05:29:00 PM 45.2236 -109.0097 204° Southwest 477 549 36,000  Level Salt Lake Center
Sat 05:30:02 PM 45.0900 -109.0961 205° Southwest 475 547 36,000  Level Salt Lake Center
Sat 05:31:03 PM 44.9778 -109.1675 204° Southwest 467 537 36,000  Level Salt Lake Center
Sat 05:32:05 PM 44.8406 -109.2544 204° Southwest 479 551 36,000  Level Salt Lake Center
Sat 05:33:06 PM 44.7261 -109.3292 205° Southwest 477 549 36,000  Level Salt Lake Center
Sat 05:34:08 PM 44.6111 -109.4003 204° Southwest 474 545 36,000  Level Salt Lake Center
Sat 05:35:10 PM 44.4731 -109.4892 205° Southwest 477 549 36,000  Level Salt Lake Center
Sat 05:36:11 PM 44.3569 -109.5614 204° Southwest 477 549 36,000  Level Salt Lake Center
Sat 05:37:13 PM 44.2211 -109.6472 204° Southwest 477 549 36,000  Level Salt Lake Center
Sat 05:38:14 PM 44.1031 -109.7206 204° Southwest 482 555 36,000  Level Salt Lake Center
Sat 05:39:16 PM 43.9853 -109.7931 204° Southwest 482 555 36,000  Level Salt Lake Center
Sat 05:40:17 PM 43.8494 -109.8758 204° Southwest 479 551 36,000  Level Salt Lake Center
Sat 05:41:19 PM 43.7328 -109.9475 204° Southwest 478 550 36,000  Level Salt Lake Center
Sat 05:42:20 PM 43.5967 -110.0319 204° Southwest 479 551 36,000  Level Salt Lake Center
Sat 05:43:22 PM 43.4894 -110.0961 203° Southwest 476 548 36,000  Level Salt Lake Center
Sat 05:44:23 PM 43.3544 -110.1781 204° Southwest 476 548 36,000  Level Salt Lake Center
Sat 05:45:25 PM 43.2258 -110.2550 204° Southwest 483 556 36,000  Level Salt Lake Center
Sat 05:46:26 PM 43.1075 -110.3286 204° Southwest 487 560 36,000  Level Salt Lake Center
Sat 05:47:27 PM 42.9714 -110.4081 203° Southwest 478 550 36,000  Level Salt Lake Center
Sat 05:48:29 PM 42.8453 -110.4836 204° Southwest 481 554 36,000  Level Salt Lake Center
Sat 05:49:30 PM 42.7286 -110.5528 204° Southwest 480 552 36,000  Level Salt Lake Center
Sat 05:54:52 PM 42.0730 -110.9330 204° Southwest 476 548 36,000  Level FlightAware ADS-B
Sat 05:55:32 PM 41.9900 -110.9810 203° Southwest 476 548 36,000  Level FlightAware ADS-B
Sat 05:56:17 PM 41.8900 -111.0390 203° Southwest 476 548 36,000  Level FlightAware ADS-B
Sat 05:56:57 PM 41.8160 -111.0810 203° Southwest 476 548 36,000  Level FlightAware ADS-B
Sat 05:57:42 PM 41.7260 -111.1320 203° Southwest 475 547 36,000  Level FlightAware ADS-B
Sat 05:59:02 PM 41.5520 -111.2320 203° Southwest 477 549 36,000  Level FlightAware ADS-B
Sat 06:04:47 PM 40.8350 -111.6330 203° Southwest 489 563 36,000  Level FlightAware ADS-B
Sat 06:09:42 PM 40.2200 -111.9720 203° Southwest 491 565 36,000  Level FlightAware ADS-B
Sat 06:10:27 PM 40.1200 -112.0320 205° Southwest 490 564 36,000  Level FlightAware ADS-B
Sat 06:11:07 PM 40.0380 -112.0800 204° Southwest 490 564 36,000  Level FlightAware ADS-B
Sat 06:12:02 PM 39.9270 -112.1450 204° Southwest 490 564 36,000  Level FlightAware ADS-B
Sat 06:12:37 PM 39.8560 -112.1860 204° Southwest 491 565 36,000  Level FlightAware ADS-B
Sat 06:13:22 PM 39.7720 -112.2350 204° Southwest 491 565 36,000  Level FlightAware ADS-B
Sat 06:14:02 PM 39.7010 -112.2760 204° Southwest 491 565 36,000  Level FlightAware ADS-B
Sat 06:14:52 PM 39.6130 -112.3270 204° Southwest 491 565 36,000  Level FlightAware ADS-B
Sat 06:15:32 PM 39.5430 -112.3680 204° Southwest 491 565 36,000  Level FlightAware ADS-B
Sat 06:16:12 PM 39.4720 -112.4080 204° Southwest 491 565 36,000  Level FlightAware ADS-B
Sat 06:16:52 PM 39.4020 -112.4490 204° Southwest 491 565 36,000  Level FlightAware ADS-B
Sat 06:17:42 PM 39.3130 -112.5000 204° Southwest 491 565 36,000  Level FlightAware ADS-B
Sat 06:18:22 PM 39.2430 -112.5400 204° Southwest 491 565 36,000  Level FlightAware ADS-B
Sat 06:19:02 PM 39.1720 -112.5810 204° Southwest 491 565 36,000  Level FlightAware ADS-B
Sat 06:19:42 PM 39.1020 -112.6210 204° Southwest 491 565 36,000  Level FlightAware ADS-B
Sat 06:20:22 PM 39.0310 -112.6620 204° Southwest 491 565 36,000  Level FlightAware ADS-B
Sat 06:21:12 PM 38.9430 -112.7120 204° Southwest 491 565 36,000  Level FlightAware ADS-B
Sat 06:21:52 PM 38.8720 -112.7530 204° Southwest 491 565 36,000  Level FlightAware ADS-B
Sat 06:22:32 PM 38.8020 -112.7930 204° Southwest 491 565 36,000  Level FlightAware ADS-B
Sat 06:23:13 PM 38.5900 -113.1053 204° Southwest 499 574 36,000  Level Salt Lake Center
Sat 06:24:14 PM 38.4681 -113.1894 208° Southwest 500 575 36,000  Level Salt Lake Center
Sat 06:25:15 PM 38.3461 -113.2736 208° Southwest 500 575 36,000  Level Salt Lake Center
Sat 06:26:16 PM 38.2253 -113.3575 209° Southwest 500 575 36,000  Level Salt Lake Center
Sat 06:27:17 PM 38.1042 -113.4431 209° Southwest 501 577 36,000  Level Salt Lake Center
Sat 06:33:27 PM 37.3430 -113.9660 209° Southwest 489 563 36,000  Level FlightAware ADS-B
Sat 06:34:12 PM 37.2510 -114.0280 208° Southwest 489 563 36,000  Level FlightAware ADS-B
Sat 06:34:57 PM 37.1590 -114.0910 209° Southwest 487 560 36,000  Level FlightAware ADS-B
Sat 06:35:37 PM 37.0810 -114.1430 208° Southwest 487 560 36,000  Level FlightAware ADS-B
Sat 06:36:17 PM 37.0010 -114.1970 208° Southwest 490 564 36,000  Level FlightAware ADS-B
Sat 06:37:02 PM 36.9120 -114.2570 208° Southwest 493 567 36,000  Level FlightAware ADS-B
Sat 06:37:42 PM 36.8320 -114.3110 208° Southwest 493 567 36,000  Level FlightAware ADS-B
Sat 06:38:27 PM 36.7400 -114.3720 208° Southwest 493 567 36,000  Level FlightAware ADS-B
Sat 06:39:07 PM 36.6600 -114.4250 208° Southwest 491 565 36,000  Level FlightAware ADS-B
Sat 06:39:47 PM 36.5780 -114.4800 208° Southwest 493 567 36,000  Level FlightAware ADS-B
Sat 06:40:32 PM 36.4910 -114.5380 208° Southwest 492 566 36,000  Level FlightAware ADS-B
Sat 06:41:12 PM 36.4100 -114.5920 208° Southwest 491 565 36,000  Level FlightAware ADS-B
Sat 06:41:57 PM 36.3160 -114.6530 208° Southwest 489 563 36,000  Level FlightAware ADS-B
Sat 06:42:37 PM 36.2380 -114.7050 208° Southwest 489 563 36,000  Level FlightAware ADS-B
Sat 06:43:17 PM 36.1580 -114.7580 208° Southwest 484 557 36,000 -212 Level FlightAware ADS-B
Sat 06:44:02 PM 36.0720 -114.8140 208° Southwest 480 552 35,700 -988 Descending FlightAware ADS-B
Sat 06:44:42 PM 35.9940 -114.8720 211° Southwest 485 558 34,600 -1,275 Descending FlightAware ADS-B
Sat 06:45:22 PM 35.9320 -114.9480 225° Southwest 480 552 34,000 -424 Descending FlightAware ADS-B
Sat 06:46:07 PM 35.8630 -115.0430 228° Southwest 480 552 34,000  Level FlightAware ADS-B
Sat 06:46:47 PM 35.8050 -115.1240 229° Southwest 480 552 34,000  Level FlightAware ADS-B
Sat 06:47:32 PM 35.7390 -115.2140 228° Southwest 482 555 34,000  Level FlightAware ADS-B
Sat 06:48:12 PM 35.6770 -115.2960 227° Southwest 484 557 34,000  Level FlightAware ADS-B
Sat 06:48:52 PM 35.6180 -115.3760 228° Southwest 481 554 34,000  Level FlightAware ADS-B
Sat 06:49:37 PM 35.5500 -115.4670 227° Southwest 478 550 34,000  Level FlightAware ADS-B
Sat 06:50:17 PM 35.4900 -115.5480 228° Southwest 480 552 34,000  Level FlightAware ADS-B
Sat 06:50:57 PM 35.4290 -115.6290 227° Southwest 479 551 34,000  Level FlightAware ADS-B
Sat 06:51:42 PM 35.3640 -115.7160 228° Southwest 477 549 34,000  Level FlightAware ADS-B
Sat 06:52:22 PM 35.3050 -115.7950 228° Southwest 474 545 34,000  Level FlightAware ADS-B
Sat 06:53:07 PM 35.2380 -115.8830 227° Southwest 472 543 34,000 -141 Level FlightAware ADS-B
Sat 06:53:47 PM 35.1770 -115.9640 227° Southwest 474 545 33,800 -450 Descending FlightAware ADS-B
Sat 06:54:27 PM 35.1170 -116.0430 227° Southwest 481 554 33,400 -424 Descending FlightAware ADS-B
Sat 06:55:12 PM 35.0490 -116.1330 227° Southwest 479 551 33,200 -565 Descending FlightAware ADS-B
Sat 06:55:52 PM 34.9920 -116.2090 228° Southwest 481 554 32,600 -988 Descending FlightAware ADS-B
Sat 06:56:37 PM 34.9200 -116.3020 227° Southwest 484 557 31,800 -1,129 Descending FlightAware ADS-B
Sat 06:57:17 PM 34.8590 -116.3820 227° Southwest 490 564 31,000 -776 Descending FlightAware ADS-B
Sat 06:58:02 PM 34.7900 -116.4660 225° Southwest 482 555 30,700 -706 Descending FlightAware ADS-B
Sat 06:58:42 PM 34.7200 -116.5360 219° Southwest 467 537 30,000 -1,425 Descending FlightAware ADS-B
Sat 06:59:22 PM 34.6550 -116.5970 218° Southwest 440 506 28,800 -1,976 Descending FlightAware ADS-B
Sat 07:00:07 PM 34.5820 -116.6660 218° Southwest 432 497 27,200 -2,047 Descending FlightAware ADS-B
Sat 07:00:47 PM 34.5190 -116.7250 218° Southwest 426 490 25,900 -1,875 Descending FlightAware ADS-B
Sat 07:01:27 PM 34.4570 -116.7820 217° Southwest 419 482 24,700 -1,765 Descending FlightAware ADS-B
Sat 07:02:12 PM 34.3900 -116.8460 218° Southwest 412 474 23,400 -1,835 Descending FlightAware ADS-B
Sat 07:02:52 PM 34.3290 -116.9020 217° Southwest 408 470 22,100 -1,906 Descending FlightAware ADS-B
Sat 07:03:37 PM 34.2610 -116.9660 218° Southwest 403 464 20,700 -1,906 Descending FlightAware ADS-B
Sat 07:04:17 PM 34.2020 -117.0210 218° Southwest 400 460 19,400 -1,906 Descending FlightAware ADS-B
Sat 07:05:02 PM 34.1390 -117.0790 217° Southwest 397 457 18,000 -1,835 Descending FlightAware ADS-B
Sat 07:05:42 PM 34.0920 -117.1450 229° Southwest 386 444 16,800 -1,650 Descending FlightAware ADS-B
Sat 07:06:22 PM 34.0590 -117.2200 242° Southwest 376 433 15,800 -1,624 Descending FlightAware ADS-B
Sat 07:07:07 PM 34.0410 -117.3150 257° West 364 419 14,500 -1,624 Descending FlightAware ADS-B
Sat 07:07:47 PM 34.0340 -117.3920 264° West 356 410 13,500 -1,350 Descending FlightAware ADS-B
Sat 07:08:27 PM 34.0300 -117.4690 266° West 320 368 12,700 -1,482 Descending FlightAware ADS-B
Sat 07:09:12 PM 34.0330 -117.5440 273° West 309 356 11,400 -1,482 Descending FlightAware ADS-B
Sat 07:09:52 PM 34.0310 -117.6120 268° West 304 350 10,600 -988 Descending FlightAware ADS-B
Sat 07:10:37 PM 34.0230 -117.6910 263° West 298 343 10,000 -857 Descending FlightAware ADS-B
Sat 07:11:02 PM 34.0190 -117.7280 263° West 294 338 9,600 -1,200 Descending FlightAware ADS-B
Sat 07:11:32 PM 34.0140 -117.7800 263° West 293 337 8,900 -1,309 Descending FlightAware ADS-B
Sat 07:11:57 PM 34.0100 -117.8170 263° West 288 331 8,400 -1,309 Descending FlightAware ADS-B
Sat 07:12:27 PM 34.0060 -117.8650 264° West 287 330 7,700 -1,300 Descending FlightAware ADS-B
Sat 07:12:57 PM 34.0010 -117.9130 263° West 284 327 7,100 -1,200 Descending FlightAware ADS-B
Sat 07:13:12 PM 33.9990 -117.9380 264° West 279 321 6,800 -1,050 Descending FlightAware ADS-B
Sat 07:13:37 PM 33.9950 -117.9750 263° West 273 314 6,400 -1,091 Descending FlightAware ADS-B
Sat 07:14:07 PM 33.9910 -118.0180 264° West 260 299 5,800 -1,200 Descending FlightAware ADS-B
Sat 07:14:32 PM 33.9870 -118.0550 263° West 246 283 5,300 -1,309 Descending FlightAware ADS-B
Sat 07:15:02 PM 33.9830 -118.0960 263° West 241 277 4,600 -1,200 Descending FlightAware ADS-B
Sat 07:15:32 PM 33.9790 -118.1350 263° West 237 273 4,100 -982 Descending FlightAware ADS-B
Sat 07:15:57 PM 33.9760 -118.1670 264° West 235 270 3,700 -982 Descending FlightAware ADS-B
Sat 07:16:27 PM 33.9720 -118.2030 262° West 235 270 3,200 -1,067 Descending FlightAware ADS-B
Sat 07:16:42 PM 33.9700 -118.2260 264° West 231 266 2,900 -1,200 Descending FlightAware ADS-B
Sat 07:17:07 PM 33.9670 -118.2550 263° West 219 252 2,400 -1,200 Descending FlightAware ADS-B
Sat 07:17:32 PM 33.9640 -118.2830 263° West 199 229 1,900 -1,091 Descending FlightAware ADS-B
Sat 07:18:02 PM 33.9610 -118.3160 264° West 171 197 1,400 -933 Descending FlightAware ADS-B
Sat 07:18:17 PM 33.9600 -118.3280 264° West 166 191 1,200 -300 Descending FlightAware ADS-B
Sat 07:18:42 PM 33.9570 -118.3490 260° West 161 185 1,200 -643 Level FlightAware ADS-B
Sat 07:19:13 PM 33.9500 -118.3667 260° West 140 161 600 -750 Descending Southern California TRACON
Sat 07:20:10 PM 33.9511 -118.4181 272° West 154 177 100 -526 Descending Los Angeles Center
Sat 07:22:00 PM 33.9425 -118.4081 140° Southeast  Level Estimated

Login

Don't have an account? Register now (free) for customized features, flight alerts, and more!